This is the latest recevied weather packets stored in our database for station/object KI5BDI. If no packets are shown the sender has not sent any weather packets the latest 10 day(s).
| Time | Temp. | Humidity | Pressure | Rain* | Wind** | Luminosity | Snow |
|---|---|---|---|---|---|---|---|
| 1777890319 | 15° C | 84% | 1013.7 hPa | 0 mm | - | 0 W/m² | - |
| 1777883720 | 13.89° C | 86% | 1014.1 hPa | 0 mm | - | 0 W/m² | - |
| 1777874123 | 13.33° C | 88% | 1015.5 hPa | 0 mm | - | 0 W/m² | - |
| 1777873523 | 13.89° C | 87% | 1015.6 hPa | 0 mm | - | 0 W/m² | - |
| 1777871723 | 13.89° C | 88% | 1015.9 hPa | 0 mm | - | 0 W/m² | - |
| 1777871124 | 13.89° C | 89% | 1015.9 hPa | 0 mm | - | 0 W/m² | - |
| 1777856739 | 22.22° C | 64% | 1015.2 hPa | 0 mm | - | 5 W/m² | - |
| 1777856119 | 23.33° C | 58% | 1015 hPa | 0 mm | - | 12 W/m² | - |
| 1777851920 | 26.67° C | 46% | 1015.2 hPa | 0 mm | - | 166 W/m² | - |
| 1777850717 | 27.22° C | 45% | 1015.2 hPa | 0 mm | - | 238 W/m² | - |
| 1777850118 | 27.22° C | 47% | 1015.2 hPa | 0 mm | - | 275 W/m² | - |
| 1777849520 | 27.22° C | 46% | 1015.3 hPa | 0 mm | - | 312 W/m² | - |
| 1777848918 | 27.22° C | 47% | 1015.4 hPa | 0 mm | - | 356 W/m² | - |
| 1777844740 | 27.78° C | 47% | 1015.7 hPa | 0 mm | - | 619 W/m² | - |
| 1777839317 | 27.22° C | 48% | 1017.2 hPa | 0 mm | - | 945 W/m² | - |
| 1777833319 | 25.56° C | 53% | 1018.6 hPa | 0 mm | - | 1069 W/m² | - |
| 1777830320 | 25° C | 58% | 1019.5 hPa | 0 mm | - | 1065 W/m² | - |
| 1777824322 | 23.33° C | 59% | 1020.4 hPa | 0 mm | - | 903 W/m² | - |
| 1777821319 | 21.67° C | 64% | 1020.6 hPa | 0 mm | - | 762 W/m² | - |
| 1777820119 | 21.11° C | 65% | 1020.6 hPa | 0 mm | - | 681 W/m² | - |
| 1777818919 | 20° C | 69% | 1020.8 hPa | 0 mm | - | 601 W/m² | - |
| 1777818319 | 19.44° C | 71% | 1020.8 hPa | 0 mm | - | 554 W/m² | - |
| 1777811124 | 8.33° C | 99% | 1020.5 hPa | 0 mm | - | 85 W/m² | - |
| 1777809325 | 7.78° C | 98% | 1020.2 hPa | 0 mm | - | 20 W/m² | - |
| 1777805126 | 7.78° C | 98% | 1019.6 hPa | 0 mm | - | 0 W/m² | - |
* Rain latest hour (hover to see other rain measurements)
** Current wind speed in m/s (hover to see current wind gust speed)